Time;durP1;ratioP1;P1;durP2;ratioP2;P2;SDS_P1;SDS_P2;PMS_P1;PMS_P2;Temp;Humidity;BMP_temperature;BMP_pressure;BME280_temperature;BME280_humidity;BME280_pressure;Samples;Min_cycle;Max_cycle;Signal;HPM_P1;HPM_P2
2024/03/18 00:01:32;;;;;;;;;3.00;2.25;;;;;0.68;85.62;100694.27;111491;240;160233;-53
2024/03/18 00:04:10;;;;;;;;;2.00;1.00;;;;;0.64;85.72;100689.84;111084;252;694465;-50
2024/03/18 00:06:46;;;;;;;;;2.50;2.00;;;;;0.64;85.78;100692.48;111475;240;160480;-50
2024/03/18 00:09:29;;;;;;;;;1.00;1.00;;;;;0.68;85.80;100694.68;111645;252;39228;-53
2024/03/18 00:12:08;;;;;;;;;3.00;2.00;;;;;0.66;85.98;100689.48;111794;252;39081;-52
2024/03/18 00:14:43;;;;;;;;;1.00;1.00;;;;;0.65;85.97;100683.95;111489;241;160985;-54
2024/03/18 00:17:22;;;;;;;;;2.00;1.00;;;;;0.64;86.02;100680.27;111868;253;39791;-55
2024/03/18 00:20:10;;;;;;;;;2.67;2.00;;;;;0.67;86.04;100680.36;111457;238;161566;-51
2024/03/18 00:22:48;;;;;;;;;3.00;2.00;;;;;0.71;86.00;100676.68;111774;253;39314;-53
2024/03/18 00:25:30;;;;;;;;;3.00;2.00;;;;;0.68;86.17;100683.83;111310;241;161499;-53
2024/03/18 00:28:07;;;;;;;;;1.00;1.00;;;;;0.68;86.26;100681.53;111694;253;39852;-52
2024/03/18 00:30:50;;;;;;;;;4.00;3.00;;;;;0.69;86.27;100674.41;111650;240;161161;-50
2024/03/18 00:33:28;;;;;;;;;4.00;2.00;;;;;0.75;86.20;100673.35;111546;253;39987;-53
2024/03/18 00:36:03;;;;;;;;;2.00;1.00;;;;;0.78;86.33;100670.09;111780;253;40099;-53
2024/03/18 00:38:47;;;;;;;;;3.25;3.00;;;;;0.77;86.28;100670.58;111509;240;160292;-51
2024/03/18 00:44:22;;;;;;;;;3.00;3.00;;;;;0.72;86.33;100665.96;111472;239;160358;-51
2024/03/18 00:47:02;;;;;;;;;3.00;2.00;;;;;0.70;86.27;100664.53;111799;253;39723;-50
2024/03/18 00:49:45;;;;;;;;;1.67;1.00;;;;;0.69;86.31;100663.23;111638;240;160297;-55
2024/03/18 00:52:23;;;;;;;;;3.00;3.00;;;;;0.67;86.36;100657.57;111792;253;41348;-52
2024/03/18 00:55:01;;;;;;;;;2.00;2.00;;;;;0.62;86.40;100654.17;111661;253;161261;-51
2024/03/18 00:57:40;;;;;;;;;3.00;2.00;;;;;0.56;86.52;100653.42;111642;252;39521;-51
2024/03/18 01:00:19;;;;;;;;;2.00;2.00;;;;;0.55;86.60;100647.23;111744;252;40615;-51
2024/03/18 01:02:58;;;;;;;;;3.00;3.00;;;;;0.62;86.69;100647.64;111528;252;39421;-50
2024/03/18 01:05:35;;;;;;;;;2.00;2.00;;;;;0.70;86.66;100643.31;111729;252;40975;-51
2024/03/18 01:08:11;;;;;;;;;2.00;2.00;;;;;0.77;86.54;100641.45;111466;252;161183;-49
2024/03/18 01:10:50;;;;;;;;;2.00;2.00;;;;;0.77;86.53;100639.71;111730;253;40705;-50
2024/03/18 01:13:35;;;;;;;;;2.00;2.00;;;;;0.82;86.52;100635.08;111515;240;161061;-53
2024/03/18 01:16:14;;;;;;;;;3.00;2.00;;;;;0.87;86.37;100634.45;111704;253;40016;-53
2024/03/18 01:18:59;;;;;;;;;2.00;2.00;;;;;0.87;86.44;100632.52;111583;240;161137;-51
2024/03/18 01:21:37;;;;;;;;;1.00;1.00;;;;;0.91;86.32;100630.48;111420;253;42260;-51
2024/03/18 01:24:13;;;;;;;;;1.00;1.00;;;;;0.81;86.34;100629.48;111814;253;40607;-51
2024/03/18 01:26:54;;;;;;;;;4.00;2.50;;;;;0.78;86.27;100629.56;111400;253;160389;-51
2024/03/18 01:29:35;;;;;;;;;1.67;1.00;;;;;0.76;86.22;100630.02;111842;253;39726;-52
2024/03/18 01:32:15;;;;;;;;;1.00;1.00;;;;;0.77;86.27;100628.38;111402;240;160779;-53
2024/03/18 01:34:56;;;;;;;;;2.00;2.00;;;;;0.72;86.38;100625.98;111821;252;39231;-55
2024/03/18 01:37:39;;;;;;;;;1.00;1.00;;;;;0.68;86.34;100624.33;111575;240;161007;-51
2024/03/18 01:40:14;;;;;;;;;4.00;3.00;;;;;0.68;86.49;100622.16;111714;253;40689;-52
2024/03/18 01:42:51;;;;;;;;;2.00;2.00;;;;;0.66;86.43;100622.55;111396;254;161435;-51
2024/03/18 01:45:31;;;;;;;;;2.00;2.00;;;;;0.65;86.51;100622.77;111577;253;40178;-51
2024/03/18 01:48:08;;;;;;;;;2.00;2.00;;;;;0.66;86.62;100621.08;111713;253;40017;-52
2024/03/18 01:50:47;;;;;;;;;3.00;2.50;;;;;0.66;86.68;100618.85;111323;240;160840;-51
2024/03/18 01:53:21;;;;;;;;;3.00;2.33;;;;;0.76;86.58;100620.49;111485;253;39638;-50
2024/03/18 01:55:56;;;;;;;;;1.00;1.00;;;;;0.74;86.61;100623.28;111350;241;161816;-50
2024/03/18 01:58:38;;;;;;;;;1.00;1.00;;;;;0.77;86.70;100622.16;111479;253;39722;-53
2024/03/18 02:01:18;;;;;;;;;2.00;1.50;;;;;0.80;86.70;100619.48;111301;240;160385;-53
2024/03/18 02:03:56;;;;;;;;;2.00;2.00;;;;;0.79;86.63;100622.93;111440;254;40925;-51
2024/03/18 02:06:35;;;;;;;;;1.00;1.00;;;;;0.75;86.72;100623.02;111363;240;160716;-51
2024/03/18 02:09:22;;;;;;;;;6.00;3.67;;;;;0.74;86.86;100623.85;111570;254;39143;-50
2024/03/18 02:12:01;;;;;;;;;3.00;2.00;;;;;0.73;86.92;100621.75;111473;253;39222;-49
2024/03/18 02:14:44;;;;;;;;;2.00;2.00;;;;;0.65;87.02;100628.80;111421;241;161154;-55
2024/03/18 02:17:28;;;;;;;;;1.00;1.00;;;;;0.60;87.32;100626.27;111491;253;41278;-52
2024/03/18 02:20:08;;;;;;;;;2.00;2.00;;;;;0.59;87.42;100629.57;111369;241;161083;-53
2024/03/18 02:22:46;;;;;;;;;2.00;1.00;;;;;0.55;87.61;100621.39;111469;253;39188;-54
2024/03/18 02:25:27;;;;;;;;;2.00;2.00;;;;;0.57;87.74;100620.56;111391;241;161170;-55
2024/03/18 02:28:07;;;;;;;;;1.00;1.00;;;;;0.56;87.80;100621.34;111459;254;39550;-51
2024/03/18 02:30:49;;;;;;;;;4.00;3.25;;;;;0.61;87.96;100617.96;111338;240;161333;-50
2024/03/18 02:33:35;;;;;;;;;2.00;1.00;;;;;0.63;87.97;100617.98;111452;254;40417;-52
2024/03/18 02:36:11;;;;;;;;;1.00;1.00;;;;;0.66;87.94;100614.73;111420;253;39593;-52
2024/03/18 02:38:51;;;;;;;;;2.00;2.00;;;;;0.65;88.03;100614.62;111430;241;160794;-54
2024/03/18 02:41:34;;;;;;;;;2.33;2.00;;;;;0.57;88.21;100612.20;111456;253;41157;-55
2024/03/18 02:44:16;;;;;;;;;2.00;2.00;;;;;0.62;88.20;100611.45;111373;240;160313;-53
2024/03/18 02:46:56;;;;;;;;;2.00;2.00;;;;;0.61;88.55;100606.29;111440;253;41230;-53
2024/03/18 02:49:39;;;;;;;;;4.25;3.00;;;;;0.57;88.44;100607.20;111330;240;160547;-50
2024/03/18 02:52:24;;;;;;;;;2.00;2.00;;;;;0.62;88.33;100604.25;111446;253;40004;-50
2024/03/18 02:55:07;;;;;;;;;3.33;3.00;;;;;0.61;88.35;100603.91;111354;253;160829;-51
2024/03/18 02:57:45;;;;;;;;;2.00;2.00;;;;;0.59;88.32;100601.63;111502;253;40048;-54
2024/03/18 03:00:24;;;;;;;;;2.00;1.67;;;;;0.54;88.52;100597.04;111552;253;39621;-55
2024/03/18 03:03:01;;;;;;;;;2.00;1.25;;;;;0.52;88.66;100594.17;111568;255;40667;-54
2024/03/18 03:05:39;;;;;;;;;2.00;1.67;;;;;0.51;88.70;100592.10;111582;255;40260;-54
2024/03/18 03:08:26;;;;;;;;;2.00;2.00;;;;;0.52;88.67;100590.27;111434;241;161198;-51
2024/03/18 03:11:09;;;;;;;;;3.00;2.00;;;;;0.54;88.88;100590.98;111438;254;39667;-50
2024/03/18 03:13:47;;;;;;;;;3.00;2.00;;;;;0.50;88.88;100588.64;111358;241;186979;-51
2024/03/18 03:16:26;;;;;;;;;3.00;2.00;;;;;0.51;88.77;100585.21;111477;254;40763;-50
2024/03/18 03:19:03;;;;;;;;;5.00;2.00;;;;;0.47;88.96;100583.62;111353;241;162436;-51
2024/03/18 03:21:42;;;;;;;;;3.00;1.00;;;;;0.48;89.04;100578.71;111284;255;40898;-50
2024/03/18 03:24:21;;;;;;;;;2.00;2.00;;;;;0.55;89.08;100579.95;111449;255;40044;-50
2024/03/18 03:27:00;;;;;;;;;2.00;2.00;;;;;0.56;89.15;100576.51;111428;255;40136;-51
2024/03/18 03:29:46;;;;;;;;;2.00;2.00;;;;;0.61;88.97;100572.92;111486;254;39310;-52
2024/03/18 03:32:27;;;;;;;;;2.00;1.00;;;;;0.55;89.05;100572.30;111140;243;160095;-51
2024/03/18 03:35:08;;;;;;;;;1.67;1.00;;;;;0.55;89.06;100573.42;111429;254;39636;-50
2024/03/18 03:37:45;;;;;;;;;3.00;2.00;;;;;0.55;89.14;100571.63;111365;240;160869;-48
2024/03/18 03:40:24;;;;;;;;;2.00;2.00;;;;;0.57;89.19;100575.73;111429;254;39196;-48
2024/03/18 03:43:06;;;;;;;;;3.00;3.00;;;;;0.54;89.21;100575.21;111352;241;161183;-52
2024/03/18 03:45:42;;;;;;;;;4.67;3.00;;;;;0.57;89.23;100576.90;111405;254;39240;-51
2024/03/18 03:48:20;;;;;;;;;2.00;2.00;;;;;0.59;89.21;100574.67;111486;254;39549;-50
2024/03/18 03:51:05;;;;;;;;;3.00;3.00;;;;;0.65;89.23;100571.37;111429;254;39588;-51
2024/03/18 03:53:46;;;;;;;;;2.00;1.75;;;;;0.67;89.20;100568.00;111455;254;39916;-50
2024/03/18 03:56:22;;;;;;;;;3.50;2.50;;;;;0.69;89.21;100566.06;111354;241;161217;-50
2024/03/18 03:58:56;;;;;;;;;2.00;2.00;;;;;0.63;89.27;100563.02;111481;254;40545;-51
2024/03/18 04:01:34;;;;;;;;;3.00;2.00;;;;;0.63;89.26;100567.64;111335;241;161206;-51
2024/03/18 04:04:13;;;;;;;;;1.25;1.00;;;;;0.64;89.25;100568.79;111669;252;39522;-50
2024/03/18 04:06:53;;;;;;;;;1.00;1.00;;;;;0.60;89.27;100567.66;111603;240;160976;-52
2024/03/18 04:09:31;;;;;;;;;2.00;1.00;;;;;0.55;89.28;100568.98;111473;253;39236;-54
2024/03/18 04:12:07;;;;;;;;;3.50;2.00;;;;;0.55;89.42;100570.23;111462;253;40985;-54
2024/03/18 04:14:49;;;;;;;;;1.25;1.00;;;;;0.58;89.45;100567.48;111475;240;161000;-54
2024/03/18 04:17:34;;;;;;;;;2.00;2.00;;;;;0.60;89.51;100565.20;111435;254;40912;-51
2024/03/18 04:20:18;;;;;;;;;3.25;2.00;;;;;0.61;89.53;100563.73;111355;244;161069;-51
2024/03/18 04:23:04;;;;;;;;;2.00;1.33;;;;;0.64;89.55;100561.70;111453;253;39937;-51
2024/03/18 04:25:44;;;;;;;;;3.00;2.00;;;;;0.63;89.67;100566.56;111332;243;160781;-52
2024/03/18 04:28:28;;;;;;;;;4.00;3.00;;;;;0.69;89.70;100558.50;111481;254;40446;-54
2024/03/18 04:31:11;;;;;;;;;1.67;1.00;;;;;0.67;89.72;100557.98;111440;239;161173;-54
2024/03/18 04:33:53;;;;;;;;;3.00;2.00;;;;;0.69;89.71;100564.19;111509;254;39967;-50
2024/03/18 04:36:29;;;;;;;;;2.00;2.00;;;;;0.69;89.77;100562.88;111491;253;39767;-50
2024/03/18 04:39:06;;;;;;;;;2.00;1.00;;;;;0.73;89.88;100563.48;111460;253;40310;-50
2024/03/18 04:41:52;;;;;;;;;3.00;2.00;;;;;0.73;89.76;100566.45;111456;254;40883;-50
2024/03/18 04:44:30;;;;;;;;;3.50;3.00;;;;;0.67;89.77;100573.34;111337;240;160594;-50
2024/03/18 04:47:05;;;;;;;;;2.00;2.00;;;;;0.65;89.89;100576.53;111442;253;39958;-50
2024/03/18 04:49:48;;;;;;;;;4.00;3.00;;;;;0.65;89.93;100579.39;111325;241;160808;-51
2024/03/18 04:52:31;;;;;;;;;2.00;1.00;;;;;0.64;89.86;100577.85;111462;254;39218;-52
2024/03/18 04:55:11;;;;;;;;;3.00;2.75;;;;;0.63;89.92;100579.31;111324;240;161218;-50
2024/03/18 04:57:54;;;;;;;;;3.00;2.00;;;;;0.70;89.95;100582.52;111493;253;40551;-54
2024/03/18 05:00:38;;;;;;;;;4.00;2.75;;;;;0.72;90.05;100580.59;111320;253;162573;-54
2024/03/18 05:03:14;;;;;;;;;2.00;2.00;;;;;0.64;90.27;100584.37;111471;253;39901;-49
2024/03/18 05:05:55;;;;;;;;;3.00;2.00;;;;;0.64;90.14;100582.31;111469;253;39809;-49
2024/03/18 05:08:38;;;;;;;;;2.00;1.50;;;;;0.66;90.18;100581.95;111313;241;160302;-50
2024/03/18 05:11:19;;;;;;;;;2.00;1.00;;;;;0.66;90.01;100580.17;111422;253;39755;-50
2024/03/18 05:14:02;;;;;;;;;2.00;2.00;;;;;0.66;90.07;100580.50;111351;254;160257;-52
2024/03/18 05:16:39;;;;;;;;;1.00;1.00;;;;;0.66;90.23;100575.94;111490;254;41000;-52
2024/03/18 05:19:23;;;;;;;;;1.00;1.00;;;;;0.66;90.27;100576.63;111406;241;161636;-54
2024/03/18 05:21:59;;;;;;;;;4.75;3.00;;;;;0.62;90.31;100576.75;111442;254;39157;-54
2024/03/18 05:24:43;;;;;;;;;2.00;1.25;;;;;0.56;90.49;100574.77;111371;241;161224;-52
2024/03/18 05:27:29;;;;;;;;;2.00;2.00;;;;;0.55;90.77;100579.23;111454;253;41247;-51
2024/03/18 05:30:07;;;;;;;;;5.00;3.00;;;;;0.61;90.81;100575.08;111431;254;41746;-49
2024/03/18 05:32:50;;;;;;;;;3.00;2.00;;;;;0.63;90.91;100575.83;111396;240;161035;-50
2024/03/18 05:35:32;;;;;;;;;0.75;0.75;;;;;0.72;90.92;100579.88;111424;253;39770;-50
2024/03/18 05:38:15;;;;;;;;;2.00;2.00;;;;;0.71;91.05;100577.30;111378;241;161039;-51
2024/03/18 05:40:55;;;;;;;;;3.75;3.00;;;;;0.77;91.08;100575.90;111435;254;39978;-51
2024/03/18 05:43:42;;;;;;;;;3.00;2.00;;;;;0.78;91.12;100571.54;111347;241;161088;-50
2024/03/18 05:46:22;;;;;;;;;3.00;2.00;;;;;0.75;91.27;100576.81;111397;254;38930;-50
2024/03/18 05:48:59;;;;;;;;;2.00;1.00;;;;;0.78;91.36;100574.98;111362;241;161474;-51
2024/03/18 05:51:41;;;;;;;;;3.00;2.00;;;;;0.89;91.19;100574.88;111469;254;39582;-52
2024/03/18 05:54:30;;;;;;;;;2.00;1.00;;;;;0.95;91.23;100575.98;111452;253;39486;-49
2024/03/18 05:57:05;;;;;;;;;5.00;4.00;;;;;1.01;91.24;100570.70;111417;254;39880;-50
2024/03/18 05:59:47;;;;;;;;;1.00;1.00;;;;;0.98;91.12;100571.55;111424;253;39498;-50
2024/03/18 06:02:22;;;;;;;;;2.00;1.50;;;;;0.89;91.32;100570.64;111422;240;160515;-49
2024/03/18 06:04:59;;;;;;;;;2.75;2.00;;;;;0.92;91.22;100570.09;111436;253;39909;-49
2024/03/18 06:07:42;;;;;;;;;5.00;3.50;;;;;0.91;91.15;100573.89;111378;240;161191;-52
2024/03/18 06:10:18;;;;;;;;;7.00;4.67;;;;;0.92;91.22;100569.73;111487;253;41016;-52
2024/03/18 06:12:54;;;;;;;;;8.00;5.00;;;;;0.89;91.27;100571.70;111377;240;162285;-52
2024/03/18 06:15:31;;;;;;;;;3.00;2.00;;;;;0.87;91.34;100573.70;111434;253;40353;-52
2024/03/18 06:18:06;;;;;;;;;3.00;2.00;;;;;0.88;91.38;100573.25;111494;254;40497;-51
2024/03/18 06:20:48;;;;;;;;;5.00;3.00;;;;;0.95;91.32;100573.23;111312;240;161914;-50
2024/03/18 06:23:26;;;;;;;;;2.00;2.00;;;;;1.04;91.42;100570.16;111483;254;38928;-50
2024/03/18 06:26:03;;;;;;;;;4.00;4.00;;;;;1.08;91.40;100570.71;111344;241;162468;-51
2024/03/18 06:28:48;;;;;;;;;4.00;3.00;;;;;1.07;91.40;100570.96;111455;253;40668;-50
2024/03/18 06:31:28;;;;;;;;;2.00;1.75;;;;;1.10;91.49;100570.69;111327;240;160881;-50
2024/03/18 06:34:07;;;;;;;;;3.00;3.00;;;;;1.15;91.46;100575.79;111439;253;41295;-52
2024/03/18 06:36:46;;;;;;;;;3.00;2.00;;;;;1.18;91.40;100576.20;111321;240;160973;-52
2024/03/18 06:39:30;;;;;;;;;2.00;2.00;;;;;1.23;91.43;100572.63;111443;253;40918;-52
2024/03/18 06:42:09;;;;;;;;;2.00;2.00;;;;;1.33;91.36;100571.09;111428;253;39330;-51
2024/03/18 06:44:49;;;;;;;;;2.00;2.00;;;;;1.40;91.25;100572.78;111400;240;160244;-50
2024/03/18 06:47:29;;;;;;;;;4.00;3.00;;;;;1.38;91.24;100571.42;111456;253;40171;-53
2024/03/18 06:50:09;;;;;;;;;3.00;2.67;;;;;1.41;91.37;100572.71;111361;241;160405;-53
2024/03/18 06:52:45;;;;;;;;;3.00;3.00;;;;;1.43;91.60;100573.65;111768;252;40258;-50
2024/03/18 06:55:20;;;;;;;;;2.00;2.00;;;;;1.50;91.62;100574.49;111559;240;161109;-49
2024/03/18 06:57:54;;;;;;;;;5.00;3.00;;;;;1.55;91.56;100575.10;111463;254;39177;-52
2024/03/18 07:00:33;;;;;;;;;2.00;2.00;;;;;1.59;91.64;100575.44;111423;254;40733;-51
2024/03/18 07:03:08;;;;;;;;;2.00;2.00;;;;;1.68;91.51;100580.70;111258;255;39943;-53
2024/03/18 07:05:47;;;;;;;;;3.50;3.00;;;;;1.62;91.66;100583.25;111446;255;38972;-53
2024/03/18 07:08:24;;;;;;;;;5.00;3.50;;;;;1.70;91.52;100584.66;111395;241;161104;-53
2024/03/18 07:11:07;;;;;;;;;6.00;4.00;;;;;1.78;91.56;100584.49;111473;254;40806;-54
2024/03/18 07:13:46;;;;;;;;;4.00;3.00;;;;;1.86;91.48;100580.80;111393;240;161021;-56
2024/03/18 07:16:23;;;;;;;;;8.67;4.00;;;;;1.87;91.39;100577.55;111454;254;41147;-56
2024/03/18 07:18:58;;;;;;;;;5.00;4.00;;;;;1.88;91.30;100579.21;111396;241;160553;-51
2024/03/18 07:21:36;;;;;;;;;3.75;3.00;;;;;1.85;91.25;100578.27;111422;254;39518;-51
2024/03/18 07:24:13;;;;;;;;;4.00;3.00;;;;;1.78;91.27;100581.33;111526;254;39673;-56
2024/03/18 07:26:56;;;;;;;;;3.00;2.00;;;;;1.75;91.33;100581.52;111431;241;160891;-56
2024/03/18 07:29:35;;;;;;;;;6.75;3.50;;;;;1.81;91.19;100583.20;111596;255;40012;-57
2024/03/18 07:32:11;;;;;;;;;5.00;4.00;;;;;1.83;91.33;100581.08;111649;240;160907;-57
2024/03/18 07:34:47;;;;;;;;;5.00;4.00;;;;;1.84;91.47;100584.75;111871;254;39325;-58
2024/03/18 07:37:26;;;;;;;;;4.00;3.00;;;;;1.98;91.48;100586.43;111522;241;161182;-54
2024/03/18 07:40:08;;;;;;;;;3.00;3.00;;;;;2.05;91.55;100586.14;111472;254;39809;-52
2024/03/18 07:42:48;;;;;;;;;4.00;3.00;;;;;2.07;91.68;100585.45;111356;241;161203;-54
2024/03/18 07:45:26;;;;;;;;;4.00;3.50;;;;;2.10;91.48;100585.51;111422;254;39446;-55
2024/03/18 07:48:05;;;;;;;;;6.00;5.00;;;;;2.18;91.36;100578.95;111471;254;39552;-57
2024/03/18 07:50:46;;;;;;;;;4.50;3.00;;;;;2.16;91.27;100585.35;111475;240;160480;-56
2024/03/18 07:53:22;;;;;;;;;6.00;4.00;;;;;2.22;91.18;100588.55;111545;254;40967;-53
2024/03/18 07:56:10;;;;;;;;;4.00;4.00;;;;;2.28;91.18;100584.52;111333;240;160522;-52
2024/03/18 07:58:51;;;;;;;;;10.00;8.00;;;;;2.31;90.98;100588.30;111479;254;39960;-52
2024/03/18 08:01:35;;;;;;;;;7.00;5.00;;;;;2.32;91.05;100594.23;111369;241;160683;-52
2024/03/18 08:04:15;;;;;;;;;6.00;4.25;;;;;2.34;91.14;100591.56;110700;253;980648;-52
2024/03/18 08:07:02;;;;;;;;;5.00;4.00;;;;;2.30;91.25;100595.81;111412;240;161447;-52
2024/03/18 08:09:50;;;;;;;;;5.00;4.00;;;;;2.34;91.39;100595.52;111484;253;39793;-52
2024/03/18 08:12:26;;;;;;;;;4.00;3.00;;;;;2.35;91.49;100595.73;111556;254;40023;-56
2024/03/18 08:15:07;;;;;;;;;2.00;2.00;;;;;2.40;91.62;100591.79;111461;240;160637;-56
2024/03/18 08:17:40;;;;;;;;;4.00;3.75;;;;;2.42;91.74;100591.48;111586;254;40788;-51
2024/03/18 08:20:15;;;;;;;;;5.67;3.00;;;;;2.49;91.67;100594.88;111395;241;162183;-52
2024/03/18 08:22:56;;;;;;;;;5.00;4.00;;;;;2.61;91.68;100590.44;111543;254;39748;-53
2024/03/18 08:25:42;;;;;;;;;4.00;3.25;;;;;2.74;91.46;100589.46;111429;240;161531;-53
2024/03/18 08:28:29;;;;;;;;;3.00;2.00;;;;;2.89;91.38;100585.68;111495;254;39781;-51
2024/03/18 08:31:05;;;;;;;;;6.00;4.00;;;;;2.98;91.40;100584.86;111351;241;160937;-51
2024/03/18 08:33:41;;;;;;;;;4.00;3.50;;;;;2.99;91.28;100585.82;111539;254;39258;-52
2024/03/18 08:36:19;;;;;;;;;4.75;4.00;;;;;3.02;91.18;100580.44;111481;254;39332;-52
2024/03/18 08:38:57;;;;;;;;;4.67;3.00;;;;;3.26;91.11;100575.90;111456;240;161228;-52
2024/03/18 08:41:37;;;;;;;;;6.00;5.00;;;;;3.41;91.20;100579.52;111458;254;41266;-52
2024/03/18 08:44:16;;;;;;;;;3.50;3.00;;;;;3.40;90.99;100573.52;111452;241;161307;-55
2024/03/18 08:46:53;;;;;;;;;4.00;3.00;;;;;3.51;90.79;100575.04;111402;254;40108;-51
2024/03/18 08:49:33;;;;;;;;;7.25;4.00;;;;;3.65;90.88;100571.80;111408;254;161908;-50
2024/03/18 08:52:11;;;;;;;;;5.00;4.00;;;;;3.71;91.03;100576.26;111499;254;40877;-50
2024/03/18 08:54:47;;;;;;;;;5.50;3.75;;;;;3.83;90.79;100577.90;111390;241;160592;-51
2024/03/18 08:57:26;;;;;;;;;4.00;3.00;;;;;4.01;90.44;100576.39;111554;254;39194;-55
2024/03/18 09:00:10;;;;;;;;;4.00;4.00;;;;;4.03;90.19;100576.16;111509;254;39331;-57
2024/03/18 09:02:49;;;;;;;;;10.00;6.00;;;;;4.07;89.96;100573.36;111471;241;160079;-55
2024/03/18 09:05:37;;;;;;;;;5.50;4.00;;;;;4.24;89.93;100571.61;111492;254;40841;-56
2024/03/18 09:08:20;;;;;;;;;5.00;4.00;;;;;4.18;89.89;100574.07;111385;241;161279;-52
2024/03/18 09:11:00;;;;;;;;;6.00;5.00;;;;;4.14;89.69;100574.07;111448;254;40105;-52
2024/03/18 09:13:44;;;;;;;;;6.00;4.00;;;;;4.17;89.51;100572.61;111399;241;161054;-53
2024/03/18 09:16:24;;;;;;;;;8.00;5.00;;;;;4.15;89.34;100574.02;111403;254;40577;-53
2024/03/18 09:18:58;;;;;;;;;5.00;4.00;;;;;4.18;89.44;100573.23;111374;240;160463;-51
2024/03/18 09:21:36;;;;;;;;;8.00;6.00;;;;;4.25;89.50;100574.20;111420;254;40112;-52
2024/03/18 09:24:16;;;;;;;;;7.00;6.00;;;;;4.23;89.40;100575.64;111441;254;41196;-51
2024/03/18 09:27:04;;;;;;;;;4.00;3.00;;;;;4.19;89.43;100577.05;111322;240;160245;-50
2024/03/18 09:29:45;;;;;;;;;8.00;7.00;;;;;4.10;89.28;100581.27;111499;254;39725;-51
2024/03/18 09:32:28;;;;;;;;;2.67;2.33;;;;;3.91;89.15;100577.54;111321;241;161392;-52
2024/03/18 09:35:09;;;;;;;;;5.00;4.00;;;;;3.82;89.13;100582.26;111524;254;40426;-55
2024/03/18 09:37:48;;;;;;;;;4.00;4.00;;;;;3.77;89.35;100580.48;111418;241;161152;-52
2024/03/18 09:40:31;;;;;;;;;6.00;5.00;;;;;3.77;89.44;100582.63;111425;254;39044;-50
2024/03/18 09:43:11;;;;;;;;;4.50;3.25;;;;;3.72;89.62;100588.61;111350;241;162801;-51
2024/03/18 09:45:50;;;;;;;;;4.00;3.33;;;;;3.74;89.95;100586.08;111463;254;39432;-50
2024/03/18 09:48:34;;;;;;;;;6.00;4.00;;;;;3.88;90.05;100587.11;111540;254;39487;-54
2024/03/18 09:51:26;;;;;;;;;5.25;4.00;;;;;4.03;90.03;100586.16;111511;253;39839;-54
2024/03/18 09:54:04;;;;;;;;;10.00;6.00;;;;;4.02;90.26;100589.80;111529;253;39890;-54
2024/03/18 09:56:45;;;;;;;;;5.50;4.75;;;;;4.11;90.14;100591.00;111399;254;160546;-55
2024/03/18 09:59:25;;;;;;;;;7.00;5.00;;;;;4.17;89.93;100587.85;111609;254;39786;-54
2024/03/18 10:02:15;;;;;;;;;5.00;4.00;;;;;4.28;89.95;100585.14;111409;240;161092;-54
2024/03/18 10:04:51;;;;;;;;;4.00;4.00;;;;;4.35;89.89;100586.70;111472;254;40994;-53
2024/03/18 10:07:32;;;;;;;;;7.00;5.33;;;;;4.33;89.71;100586.20;111348;240;161179;-53
2024/03/18 10:10:16;;;;;;;;;5.00;4.00;;;;;4.28;89.64;100588.55;111378;254;41797;-53
2024/03/18 10:12:54;;;;;;;;;7.00;6.00;;;;;4.25;89.51;100588.64;111345;240;160905;-54
2024/03/18 10:15:31;;;;;;;;;6.00;5.00;;;;;4.21;89.53;100586.27;111541;254;39905;-55
2024/03/18 10:18:12;;;;;;;;;6.50;4.50;;;;;4.17;89.65;100589.46;111539;253;39456;-50
2024/03/18 10:20:52;;;;;;;;;7.00;5.00;;;;;4.03;89.66;100589.60;111320;243;160752;-50
2024/03/18 10:23:28;;;;;;;;;7.00;5.00;;;;;3.88;89.80;100594.03;111457;253;39514;-50
2024/03/18 10:26:05;;;;;;;;;5.00;4.00;;;;;3.85;89.96;100591.09;111373;240;160571;-50
2024/03/18 10:28:45;;;;;;;;;8.00;6.00;;;;;3.83;89.98;100593.29;111535;253;39375;-55
2024/03/18 10:31:20;;;;;;;;;6.00;4.00;;;;;3.87;89.95;100586.33;111422;240;161733;-54
2024/03/18 10:34:01;;;;;;;;;4.00;3.00;;;;;3.92;89.81;100587.59;111500;253;38972;-51
2024/03/18 10:36:40;;;;;;;;;4.00;4.00;;;;;3.87;89.83;100590.91;111493;253;39175;-51
2024/03/18 10:39:23;;;;;;;;;5.00;4.00;;;;;3.90;89.82;100589.73;111505;254;40833;-49
2024/03/18 10:42:08;;;;;;;;;5.00;4.33;;;;;3.92;89.94;100592.54;111449;253;39457;-50
2024/03/18 10:44:59;;;;;;;;;5.00;4.00;;;;;3.80;90.15;100591.02;111344;241;161165;-53
2024/03/18 10:47:46;;;;;;;;;4.00;3.00;;;;;3.91;90.23;100594.31;111487;253;39187;-53
2024/03/18 10:50:30;;;;;;;;;7.00;5.75;;;;;3.91;90.42;100594.09;111298;241;160226;-52
2024/03/18 10:53:13;;;;;;;;;5.00;4.67;;;;;4.03;90.51;100592.58;111443;253;39497;-51
2024/03/18 10:55:52;;;;;;;;;6.00;5.00;;;;;4.11;90.49;100592.93;111305;240;187477;-53
2024/03/18 10:58:40;;;;;;;;;6.00;4.00;;;;;4.17;90.61;100594.52;111505;254;40164;-50
2024/03/18 11:01:19;;;;;;;;;4.00;4.00;;;;;4.28;90.46;100587.95;111314;241;160706;-54
2024/03/18 11:04:01;;;;;;;;;6.33;5.00;;;;;4.36;90.34;100586.86;111472;254;39349;-51
2024/03/18 11:06:46;;;;;;;;;4.00;4.00;;;;;4.37;90.14;100587.63;111417;253;39650;-51
2024/03/18 11:09:29;;;;;;;;;5.75;4.00;;;;;4.32;90.17;100590.41;111553;254;39886;-54
2024/03/18 11:12:07;;;;;;;;;4.50;3.00;;;;;4.30;90.31;100592.55;111510;253;41127;-50
2024/03/18 11:14:44;;;;;;;;;5.00;4.00;;;;;4.34;90.17;100587.88;111371;240;160418;-55
2024/03/18 11:17:20;;;;;;;;;8.75;6.00;;;;;4.37;89.88;100588.33;111787;252;39817;-54
2024/03/18 11:20:04;;;;;;;;;6.00;4.67;;;;;4.31;89.91;100582.48;111503;240;184386;-53
2024/03/18 11:22:56;;;;;;;;;7.00;5.50;;;;;4.24;89.70;100580.16;111459;253;41473;-51
2024/03/18 11:25:37;;;;;;;;;4.00;3.00;;;;;4.16;89.92;100582.12;111345;240;161478;-50
2024/03/18 11:28:17;;;;;;;;;5.00;4.00;;;;;4.13;90.13;100580.41;111442;253;39585;-53
2024/03/18 11:31:01;;;;;;;;;5.00;3.50;;;;;4.14;90.53;100579.61;111365;240;162426;-55
2024/03/18 11:33:48;;;;;;;;;4.00;3.00;;;;;4.25;90.15;100579.17;111493;254;40366;-51
2024/03/18 11:36:26;;;;;;;;;8.00;6.00;;;;;4.35;90.06;100577.26;111443;253;39850;-51
2024/03/18 11:39:04;;;;;;;;;12.00;8.00;;;;;4.45;90.15;100579.04;111346;240;161040;-51
2024/03/18 11:41:38;;;;;;;;;8.00;7.00;;;;;4.47;90.08;100585.28;111439;254;39343;-52
2024/03/18 11:44:18;;;;;;;;;6.00;4.33;;;;;4.47;90.26;100579.36;111392;240;161005;-53
2024/03/18 11:47:05;;;;;;;;;5.25;3.75;;;;;4.57;90.02;100577.16;111432;253;39313;-53
2024/03/18 11:49:49;;;;;;;;;4.00;3.67;;;;;4.60;90.04;100575.55;111366;240;161183;-52
2024/03/18 11:52:28;;;;;;;;;8.00;6.75;;;;;4.63;90.61;100575.50;111480;253;40957;-53
2024/03/18 11:55:11;;;;;;;;;5.00;4.00;;;;;4.75;90.76;100573.76;111359;240;160471;-52
2024/03/18 11:57:50;;;;;;;;;4.75;3.50;;;;;4.96;90.86;100566.16;111452;253;40829;-50
2024/03/18 12:00:35;;;;;;;;;6.00;4.00;;;;;5.24;91.10;100567.69;111420;253;39167;-50
2024/03/18 12:03:15;;;;;;;;;7.00;5.00;;;;;5.55;91.42;100570.17;111400;241;160745;-53
2024/03/18 12:05:56;;;;;;;;;6.00;4.75;;;;;5.67;90.98;100566.07;111446;255;40039;-53
2024/03/18 12:08:38;;;;;;;;;7.00;6.00;;;;;5.66;90.51;100568.41;111344;241;161186;-52
2024/03/18 12:11:20;;;;;;;;;8.00;6.00;;;;;5.44;90.29;100570.86;111425;255;39597;-52
2024/03/18 12:13:57;;;;;;;;;6.00;5.00;;;;;5.29;89.87;100566.63;111341;241;161349;-52
2024/03/18 12:16:40;;;;;;;;;8.00;6.00;;;;;5.26;89.63;100566.36;111460;254;39646;-52
2024/03/18 12:19:15;;;;;;;;;6.00;5.00;;;;;5.22;89.49;100568.01;111400;241;159987;-56
2024/03/18 12:21:54;;;;;;;;;6.50;5.75;;;;;5.09;89.59;100562.56;111531;255;39965;-56
2024/03/18 12:30:31;;;;;;;;;4.00;3.67;;;;;4.96;89.32;100575.63;111476;254;39830;-54
2024/03/18 12:33:09;;;;;;;;;10.00;6.00;;;;;4.93;89.81;100569.50;111137;242;160928;-51
2024/03/18 12:35:51;;;;;;;;;5.00;4.00;;;;;5.03;89.91;100567.05;111446;254;40071;-52
2024/03/18 12:38:38;;;;;;;;;7.67;4.33;;;;;5.19;90.22;100570.81;111402;241;161632;-55